Airfield :
LOGIN :

Register | Disclaimer

   EN    FR    IT 

 










Legend :    VFR   Marginal VFR   IFR   Intensive IFR   Very Intensive IFR
Visi :
Ceiling :
>= 8 km
>= 3000ft
5 to 8 km
1000 to 3000 ft
1500m to 5 km
500 to 1000 ft
800 to 1500m
200 to 500 ft
< 800m
< 200 ft
Symbols :   Thunderstorms  Fog  Heavy snow  Heavy precipitations  Wind > 20 kt
SIGMETs :     Misc.  Thunderstorms  Icing  Turbulence  Mountain Waves  Volcanic Ashes






- Airport Elevation : 870 ft
- IATA code : ETZ


LFJL - Metz Nancy Lorraine

CURRENT METAR :
  • 180330Z AUTO 35003KT 4000 BR FEW012 OVC037 03/03 Q1037 TEMPO 0400 FG VV///

EXPIRED METARs :
  • 180300Z AUTO 33005KT 4800 BR BKN011 OVC035 03/03 Q1036 TEMPO 0400 FG VV///
  • 180230Z AUTO 34005KT 4800 BR FEW011 OVC036 03/03 Q1037 TEMPO 0400 FG VV///
  • 180200Z AUTO 34005KT 5000 BR FEW013 SCT024 OVC037 03/03 Q1037 TEMPO 0400 FG VV///
  • 180130Z AUTO 34004KT 4600 BR BKN012 BKN025 OVC031 03/03 Q1037 TEMPO 0400 FG VV///
  • 180100Z AUTO 31003KT 4000 BR FEW014 OVC035 03/03 Q1037 TEMPO 0400 FG VV///

TAF TAF LFJL
Valid from the 18 at 00:00 until the 19 at 00:00 UTC


172300Z 1800/1824 VRB03KT 6000 FEW010 BKN025
TEMPO 1800/1810 2500 BR OVC004
PROB40
TEMPO 1800/1808 0400 FG VV///
FM181000 08010KT 6000 OVC006
BECMG 1811/1813 BKN013
PROB40
TEMPO 1813/1818 FEW015
TEMPO 1820/1824 OVC006



MET'MAP, your aeronautical weather chart ! - Copyright ORBIFLY December 2007 - Disclaimer

ORBIFLY MET'MAP TEAM :

Programming & Development : Alexandra Zaïnal
Concept & original design : Baudouin d'Aumeries
Assistance for programming : Marc-Olivier Méhu
Technical & hardware support : Manuel Goepfert

Contact : metmap@orbifly.com




SOURCES & CREDITS :

   NOAA